sensor_id;sensor_type;location;lat;lon;timestamp;P1;durP1;ratioP1;P2;durP2;ratioP2
47155;SDS011;32908;52.344;16.858;2023-03-01T00:01:44;163.93;;;66.50;;
47155;SDS011;32908;52.344;16.858;2023-03-01T00:04:12;156.57;;;66.13;;
47155;SDS011;32908;52.344;16.858;2023-03-01T00:06:41;158.67;;;65.63;;
47155;SDS011;32908;52.344;16.858;2023-03-01T00:09:12;157.63;;;65.43;;
47155;SDS011;32908;52.344;16.858;2023-03-01T00:11:59;153.03;;;64.97;;
47155;SDS011;32908;52.344;16.858;2023-03-01T00:14:27;157.63;;;65.10;;
47155;SDS011;32908;52.344;16.858;2023-03-01T00:16:55;151.13;;;61.73;;
47155;SDS011;32908;52.344;16.858;2023-03-01T00:19:23;140.93;;;62.27;;
47155;SDS011;32908;52.344;16.858;2023-03-01T00:21:52;148.90;;;60.67;;
47155;SDS011;32908;52.344;16.858;2023-03-01T00:24:20;148.03;;;62.07;;
47155;SDS011;32908;52.344;16.858;2023-03-01T00:26:48;144.13;;;62.70;;
47155;SDS011;32908;52.344;16.858;2023-03-01T00:29:16;142.23;;;59.33;;
47155;SDS011;32908;52.344;16.858;2023-03-01T00:31:44;137.37;;;59.10;;
47155;SDS011;32908;52.344;16.858;2023-03-01T00:34:13;139.20;;;59.07;;
47155;SDS011;32908;52.344;16.858;2023-03-01T00:36:41;131.13;;;56.87;;
47155;SDS011;32908;52.344;16.858;2023-03-01T00:39:10;136.37;;;57.57;;
47155;SDS011;32908;52.344;16.858;2023-03-01T00:41:41;139.30;;;59.77;;
47155;SDS011;32908;52.344;16.858;2023-03-01T00:44:09;127.43;;;56.67;;
47155;SDS011;32908;52.344;16.858;2023-03-01T00:46:38;128.13;;;54.83;;
47155;SDS011;32908;52.344;16.858;2023-03-01T00:49:06;123.83;;;55.33;;
47155;SDS011;32908;52.344;16.858;2023-03-01T00:51:35;122.83;;;53.37;;
47155;SDS011;32908;52.344;16.858;2023-03-01T00:54:03;129.37;;;53.43;;
47155;SDS011;32908;52.344;16.858;2023-03-01T00:56:31;133.43;;;54.70;;
47155;SDS011;32908;52.344;16.858;2023-03-01T00:58:59;130.13;;;52.93;;
47155;SDS011;32908;52.344;16.858;2023-03-01T01:01:28;131.30;;;56.70;;
47155;SDS011;32908;52.344;16.858;2023-03-01T01:03:58;130.30;;;54.23;;
47155;SDS011;32908;52.344;16.858;2023-03-01T01:06:28;124.03;;;53.93;;
47155;SDS011;32908;52.344;16.858;2023-03-01T01:08:57;132.13;;;55.70;;
47155;SDS011;32908;52.344;16.858;2023-03-01T01:11:26;135.43;;;56.03;;
47155;SDS011;32908;52.344;16.858;2023-03-01T01:13:56;135.30;;;56.27;;
47155;SDS011;32908;52.344;16.858;2023-03-01T01:16:25;123.17;;;52.17;;
47155;SDS011;32908;52.344;16.858;2023-03-01T01:18:54;133.10;;;54.50;;
47155;SDS011;32908;52.344;16.858;2023-03-01T01:21:23;119.83;;;51.23;;
47155;SDS011;32908;52.344;16.858;2023-03-01T01:23:52;135.67;;;55.93;;
47155;SDS011;32908;52.344;16.858;2023-03-01T01:26:21;133.37;;;54.33;;
47155;SDS011;32908;52.344;16.858;2023-03-01T01:28:50;131.67;;;54.57;;
47155;SDS011;32908;52.344;16.858;2023-03-01T01:31:19;128.87;;;55.67;;
47155;SDS011;32908;52.344;16.858;2023-03-01T01:33:50;135.53;;;56.27;;
47155;SDS011;32908;52.344;16.858;2023-03-01T01:36:18;118.50;;;52.20;;
47155;SDS011;32908;52.344;16.858;2023-03-01T01:38:46;133.63;;;56.13;;
47155;SDS011;32908;52.344;16.858;2023-03-01T01:41:16;129.23;;;55.67;;
47155;SDS011;32908;52.344;16.858;2023-03-01T01:43:46;128.90;;;53.90;;
47155;SDS011;32908;52.344;16.858;2023-03-01T01:46:19;134.10;;;55.27;;
47155;SDS011;32908;52.344;16.858;2023-03-01T01:48:52;135.87;;;55.57;;
47155;SDS011;32908;52.344;16.858;2023-03-01T01:51:23;137.83;;;56.30;;
47155;SDS011;32908;52.344;16.858;2023-03-01T01:53:54;136.40;;;54.50;;
47155;SDS011;32908;52.344;16.858;2023-03-01T01:56:25;141.13;;;58.03;;
47155;SDS011;32908;52.344;16.858;2023-03-01T01:58:54;139.33;;;55.73;;
47155;SDS011;32908;52.344;16.858;2023-03-01T02:01:23;144.40;;;59.60;;
47155;SDS011;32908;52.344;16.858;2023-03-01T02:03:51;142.27;;;58.77;;
47155;SDS011;32908;52.344;16.858;2023-03-01T02:06:21;152.83;;;61.20;;
47155;SDS011;32908;52.344;16.858;2023-03-01T02:08:55;140.20;;;58.77;;
47155;SDS011;32908;52.344;16.858;2023-03-01T02:11:26;153.30;;;58.70;;
47155;SDS011;32908;52.344;16.858;2023-03-01T02:13:55;155.37;;;60.60;;
47155;SDS011;32908;52.344;16.858;2023-03-01T02:16:23;150.53;;;59.37;;
47155;SDS011;32908;52.344;16.858;2023-03-01T02:18:51;150.80;;;62.35;;
47155;SDS011;32908;52.344;16.858;2023-03-01T02:21:30;156.03;;;60.47;;
47155;SDS011;32908;52.344;16.858;2023-03-01T02:24:04;155.23;;;61.10;;
47155;SDS011;32908;52.344;16.858;2023-03-01T02:26:39;147.97;;;58.00;;
47155;SDS011;32908;52.344;16.858;2023-03-01T02:29:09;155.70;;;60.90;;
47155;SDS011;32908;52.344;16.858;2023-03-01T02:31:37;147.13;;;60.87;;
47155;SDS011;32908;52.344;16.858;2023-03-01T02:34:09;158.27;;;60.27;;
47155;SDS011;32908;52.344;16.858;2023-03-01T02:36:40;142.33;;;59.73;;
47155;SDS011;32908;52.344;16.858;2023-03-01T02:39:10;146.53;;;59.07;;
47155;SDS011;32908;52.344;16.858;2023-03-01T02:41:44;151.50;;;61.00;;
47155;SDS011;32908;52.344;16.858;2023-03-01T02:44:15;154.33;;;58.67;;
47155;SDS011;32908;52.344;16.858;2023-03-01T02:46:43;154.00;;;61.37;;
47155;SDS011;32908;52.344;16.858;2023-03-01T02:49:17;151.80;;;60.67;;
47155;SDS011;32908;52.344;16.858;2023-03-01T02:51:52;148.40;;;58.47;;
47155;SDS011;32908;52.344;16.858;2023-03-01T02:54:24;151.03;;;59.70;;
47155;SDS011;32908;52.344;16.858;2023-03-01T02:56:54;127.97;;;53.10;;
47155;SDS011;32908;52.344;16.858;2023-03-01T02:59:24;139.93;;;55.77;;
47155;SDS011;32908;52.344;16.858;2023-03-01T03:01:54;130.47;;;56.20;;
47155;SDS011;32908;52.344;16.858;2023-03-01T03:04:22;129.80;;;54.33;;
47155;SDS011;32908;52.344;16.858;2023-03-01T03:06:50;128.57;;;53.17;;
47155;SDS011;32908;52.344;16.858;2023-03-01T03:09:18;118.47;;;49.50;;
47155;SDS011;32908;52.344;16.858;2023-03-01T03:11:47;110.30;;;47.03;;
47155;SDS011;32908;52.344;16.858;2023-03-01T03:14:16;116.13;;;48.60;;
47155;SDS011;32908;52.344;16.858;2023-03-01T03:16:45;111.90;;;48.53;;
47155;SDS011;32908;52.344;16.858;2023-03-01T03:19:14;109.87;;;48.90;;
47155;SDS011;32908;52.344;16.858;2023-03-01T03:21:43;110.10;;;48.17;;
47155;SDS011;32908;52.344;16.858;2023-03-01T03:24:11;106.43;;;47.77;;
47155;SDS011;32908;52.344;16.858;2023-03-01T03:26:39;111.27;;;47.20;;
47155;SDS011;32908;52.344;16.858;2023-03-01T03:29:07;103.07;;;46.17;;
47155;SDS011;32908;52.344;16.858;2023-03-01T03:31:35;97.57;;;44.33;;
47155;SDS011;32908;52.344;16.858;2023-03-01T03:34:04;97.93;;;44.23;;
47155;SDS011;32908;52.344;16.858;2023-03-01T03:36:32;101.50;;;46.10;;
47155;SDS011;32908;52.344;16.858;2023-03-01T03:39:00;105.00;;;45.40;;
47155;SDS011;32908;52.344;16.858;2023-03-01T03:41:28;97.23;;;43.13;;
47155;SDS011;32908;52.344;16.858;2023-03-01T03:43:57;92.27;;;42.27;;
47155;SDS011;32908;52.344;16.858;2023-03-01T03:46:25;97.73;;;44.43;;
47155;SDS011;32908;52.344;16.858;2023-03-01T03:48:53;92.27;;;42.30;;
47155;SDS011;32908;52.344;16.858;2023-03-01T03:51:21;94.80;;;42.90;;
47155;SDS011;32908;52.344;16.858;2023-03-01T03:53:49;96.00;;;43.50;;
47155;SDS011;32908;52.344;16.858;2023-03-01T03:56:17;90.40;;;42.43;;
47155;SDS011;32908;52.344;16.858;2023-03-01T03:58:46;96.97;;;43.90;;
47155;SDS011;32908;52.344;16.858;2023-03-01T04:01:14;95.77;;;43.83;;
47155;SDS011;32908;52.344;16.858;2023-03-01T04:03:42;88.87;;;42.27;;
47155;SDS011;32908;52.344;16.858;2023-03-01T04:06:13;93.33;;;43.33;;
47155;SDS011;32908;52.344;16.858;2023-03-01T04:08:41;90.57;;;43.93;;
47155;SDS011;32908;52.344;16.858;2023-03-01T04:11:09;86.33;;;41.30;;
47155;SDS011;32908;52.344;16.858;2023-03-01T04:13:53;81.10;;;40.60;;
47155;SDS011;32908;52.344;16.858;2023-03-01T04:16:22;85.07;;;42.60;;
47155;SDS011;32908;52.344;16.858;2023-03-01T04:18:51;85.47;;;41.27;;
47155;SDS011;32908;52.344;16.858;2023-03-01T04:21:20;83.43;;;41.30;;
47155;SDS011;32908;52.344;16.858;2023-03-01T04:23:48;98.20;;;44.17;;
47155;SDS011;32908;52.344;16.858;2023-03-01T04:26:18;91.37;;;43.40;;
47155;SDS011;32908;52.344;16.858;2023-03-01T04:28:47;91.60;;;43.50;;
47155;SDS011;32908;52.344;16.858;2023-03-01T04:31:17;92.17;;;43.30;;
47155;SDS011;32908;52.344;16.858;2023-03-01T04:33:47;92.50;;;42.90;;
47155;SDS011;32908;52.344;16.858;2023-03-01T04:36:18;88.40;;;41.43;;
47155;SDS011;32908;52.344;16.858;2023-03-01T04:38:47;95.10;;;42.65;;
47155;SDS011;32908;52.344;16.858;2023-03-01T04:41:16;90.33;;;40.83;;
47155;SDS011;32908;52.344;16.858;2023-03-01T04:43:46;89.30;;;43.10;;
47155;SDS011;32908;52.344;16.858;2023-03-01T04:46:15;90.70;;;43.77;;
47155;SDS011;32908;52.344;16.858;2023-03-01T04:48:44;93.30;;;44.23;;
47155;SDS011;32908;52.344;16.858;2023-03-01T04:51:13;90.57;;;42.73;;
47155;SDS011;32908;52.344;16.858;2023-03-01T04:53:42;94.60;;;44.47;;
47155;SDS011;32908;52.344;16.858;2023-03-01T04:56:11;90.00;;;44.07;;
47155;SDS011;32908;52.344;16.858;2023-03-01T04:58:40;87.17;;;42.93;;
47155;SDS011;32908;52.344;16.858;2023-03-01T05:01:09;90.40;;;43.30;;
47155;SDS011;32908;52.344;16.858;2023-03-01T05:03:41;82.53;;;42.07;;
47155;SDS011;32908;52.344;16.858;2023-03-01T05:06:10;91.70;;;43.17;;
47155;SDS011;32908;52.344;16.858;2023-03-01T05:08:38;86.03;;;41.03;;
47155;SDS011;32908;52.344;16.858;2023-03-01T05:11:07;85.87;;;42.43;;
47155;SDS011;32908;52.344;16.858;2023-03-01T05:13:36;92.67;;;43.53;;
47155;SDS011;32908;52.344;16.858;2023-03-01T05:16:07;88.30;;;42.73;;
47155;SDS011;32908;52.344;16.858;2023-03-01T05:18:37;88.97;;;43.33;;
47155;SDS011;32908;52.344;16.858;2023-03-01T05:21:06;84.40;;;41.40;;
47155;SDS011;32908;52.344;16.858;2023-03-01T05:23:36;85.47;;;41.47;;
47155;SDS011;32908;52.344;16.858;2023-03-01T05:26:05;87.33;;;43.30;;
47155;SDS011;32908;52.344;16.858;2023-03-01T05:28:33;83.57;;;39.97;;
47155;SDS011;32908;52.344;16.858;2023-03-01T05:31:02;89.50;;;44.33;;
47155;SDS011;32908;52.344;16.858;2023-03-01T05:33:36;87.33;;;41.80;;
47155;SDS011;32908;52.344;16.858;2023-03-01T05:36:05;88.60;;;43.47;;
47155;SDS011;32908;52.344;16.858;2023-03-01T05:38:36;90.53;;;42.60;;
47155;SDS011;32908;52.344;16.858;2023-03-01T05:41:04;89.80;;;42.70;;
47155;SDS011;32908;52.344;16.858;2023-03-01T05:43:39;88.37;;;41.30;;
47155;SDS011;32908;52.344;16.858;2023-03-01T05:46:09;91.27;;;43.33;;
47155;SDS011;32908;52.344;16.858;2023-03-01T05:48:39;91.67;;;45.93;;
47155;SDS011;32908;52.344;16.858;2023-03-01T05:51:08;119.37;;;55.03;;
47155;SDS011;32908;52.344;16.858;2023-03-01T05:53:36;120.27;;;55.30;;
47155;SDS011;32908;52.344;16.858;2023-03-01T05:56:05;145.07;;;57.20;;
47155;SDS011;32908;52.344;16.858;2023-03-01T05:58:33;133.20;;;60.33;;
47155;SDS011;32908;52.344;16.858;2023-03-01T06:01:01;121.07;;;56.50;;
47155;SDS011;32908;52.344;16.858;2023-03-01T06:03:30;121.47;;;55.43;;
47155;SDS011;32908;52.344;16.858;2023-03-01T06:05:58;116.57;;;52.70;;
47155;SDS011;32908;52.344;16.858;2023-03-01T06:08:26;121.07;;;52.30;;
47155;SDS011;32908;52.344;16.858;2023-03-01T06:10:54;113.93;;;52.27;;
47155;SDS011;32908;52.344;16.858;2023-03-01T06:13:22;120.83;;;54.03;;
47155;SDS011;32908;52.344;16.858;2023-03-01T06:15:51;115.63;;;52.57;;
47155;SDS011;32908;52.344;16.858;2023-03-01T06:18:19;116.43;;;53.07;;
47155;SDS011;32908;52.344;16.858;2023-03-01T06:20:52;116.83;;;52.77;;
47155;SDS011;32908;52.344;16.858;2023-03-01T06:23:21;118.10;;;53.03;;
47155;SDS011;32908;52.344;16.858;2023-03-01T06:25:49;118.83;;;55.57;;
47155;SDS011;32908;52.344;16.858;2023-03-01T06:28:17;119.37;;;54.60;;
47155;SDS011;32908;52.344;16.858;2023-03-01T06:30:46;105.43;;;53.63;;
47155;SDS011;32908;52.344;16.858;2023-03-01T06:33:14;110.03;;;52.87;;
47155;SDS011;32908;52.344;16.858;2023-03-01T06:35:42;112.30;;;52.23;;
47155;SDS011;32908;52.344;16.858;2023-03-01T06:38:10;113.23;;;55.83;;
47155;SDS011;32908;52.344;16.858;2023-03-01T06:40:41;116.70;;;56.67;;
47155;SDS011;32908;52.344;16.858;2023-03-01T06:43:09;125.13;;;60.40;;
47155;SDS011;32908;52.344;16.858;2023-03-01T06:45:37;125.33;;;59.67;;
47155;SDS011;32908;52.344;16.858;2023-03-01T06:48:06;122.33;;;60.23;;
47155;SDS011;32908;52.344;16.858;2023-03-01T06:50:35;121.00;;;57.87;;
47155;SDS011;32908;52.344;16.858;2023-03-01T06:53:04;117.43;;;58.80;;
47155;SDS011;32908;52.344;16.858;2023-03-01T06:55:32;122.20;;;61.23;;
47155;SDS011;32908;52.344;16.858;2023-03-01T06:58:01;129.43;;;61.30;;
47155;SDS011;32908;52.344;16.858;2023-03-01T07:00:30;117.00;;;58.20;;
47155;SDS011;32908;52.344;16.858;2023-03-01T07:02:59;115.63;;;57.73;;
47155;SDS011;32908;52.344;16.858;2023-03-01T07:05:28;110.77;;;55.53;;
47155;SDS011;32908;52.344;16.858;2023-03-01T07:07:56;114.47;;;56.07;;
47155;SDS011;32908;52.344;16.858;2023-03-01T07:10:24;108.77;;;52.60;;
47155;SDS011;32908;52.344;16.858;2023-03-01T07:12:54;106.00;;;53.63;;
47155;SDS011;32908;52.344;16.858;2023-03-01T07:15:23;96.23;;;49.77;;
47155;SDS011;32908;52.344;16.858;2023-03-01T07:17:51;96.53;;;48.73;;
47155;SDS011;32908;52.344;16.858;2023-03-01T07:20:19;96.90;;;47.30;;
47155;SDS011;32908;52.344;16.858;2023-03-01T07:22:50;88.23;;;45.67;;
47155;SDS011;32908;52.344;16.858;2023-03-01T07:25:19;87.93;;;46.73;;
47155;SDS011;32908;52.344;16.858;2023-03-01T07:27:49;84.83;;;44.40;;
47155;SDS011;32908;52.344;16.858;2023-03-01T07:30:18;80.73;;;43.47;;
47155;SDS011;32908;52.344;16.858;2023-03-01T07:32:47;74.53;;;40.67;;
47155;SDS011;32908;52.344;16.858;2023-03-01T07:35:15;77.17;;;40.83;;
47155;SDS011;32908;52.344;16.858;2023-03-01T07:37:43;78.30;;;41.20;;
47155;SDS011;32908;52.344;16.858;2023-03-01T07:40:12;72.83;;;41.63;;
47155;SDS011;32908;52.344;16.858;2023-03-01T07:42:40;75.70;;;39.17;;
47155;SDS011;32908;52.344;16.858;2023-03-01T07:45:09;80.67;;;39.90;;
47155;SDS011;32908;52.344;16.858;2023-03-01T07:47:38;72.03;;;38.23;;
47155;SDS011;32908;52.344;16.858;2023-03-01T07:50:07;72.10;;;37.27;;
47155;SDS011;32908;52.344;16.858;2023-03-01T07:52:37;59.70;;;32.93;;
47155;SDS011;32908;52.344;16.858;2023-03-01T07:55:06;60.40;;;33.50;;
47155;SDS011;32908;52.344;16.858;2023-03-01T07:57:35;59.63;;;32.87;;
47155;SDS011;32908;52.344;16.858;2023-03-01T08:00:04;54.57;;;31.03;;
47155;SDS011;32908;52.344;16.858;2023-03-01T08:02:34;53.10;;;30.40;;
47155;SDS011;32908;52.344;16.858;2023-03-01T08:05:03;48.50;;;27.40;;
47155;SDS011;32908;52.344;16.858;2023-03-01T08:07:32;54.17;;;29.63;;
47155;SDS011;32908;52.344;16.858;2023-03-01T08:10:00;45.37;;;26.67;;
47155;SDS011;32908;52.344;16.858;2023-03-01T08:12:29;44.63;;;26.30;;
47155;SDS011;32908;52.344;16.858;2023-03-01T08:14:57;43.27;;;25.53;;
47155;SDS011;32908;52.344;16.858;2023-03-01T08:17:25;36.33;;;21.63;;
47155;SDS011;32908;52.344;16.858;2023-03-01T08:19:54;34.77;;;19.50;;
47155;SDS011;32908;52.344;16.858;2023-03-01T08:22:22;34.73;;;17.73;;
47155;SDS011;32908;52.344;16.858;2023-03-01T08:24:50;33.47;;;18.57;;
47155;SDS011;32908;52.344;16.858;2023-03-01T08:27:18;29.20;;;16.80;;
47155;SDS011;32908;52.344;16.858;2023-03-01T08:29:46;37.67;;;19.43;;
47155;SDS011;32908;52.344;16.858;2023-03-01T08:32:14;33.23;;;18.67;;
47155;SDS011;32908;52.344;16.858;2023-03-01T08:34:43;37.37;;;21.17;;
47155;SDS011;32908;52.344;16.858;2023-03-01T08:37:14;52.37;;;24.40;;
47155;SDS011;32908;52.344;16.858;2023-03-01T08:39:42;49.13;;;23.10;;
47155;SDS011;32908;52.344;16.858;2023-03-01T08:42:10;40.60;;;22.80;;
47155;SDS011;32908;52.344;16.858;2023-03-01T08:44:38;47.83;;;25.33;;
47155;SDS011;32908;52.344;16.858;2023-03-01T08:47:06;55.60;;;30.43;;
47155;SDS011;32908;52.344;16.858;2023-03-01T08:49:35;35.73;;;20.37;;
47155;SDS011;32908;52.344;16.858;2023-03-01T08:52:03;30.27;;;17.47;;
47155;SDS011;32908;52.344;16.858;2023-03-01T08:54:31;32.90;;;16.87;;
47155;SDS011;32908;52.344;16.858;2023-03-01T08:57:01;38.43;;;19.40;;
47155;SDS011;32908;52.344;16.858;2023-03-01T08:59:30;29.27;;;16.53;;
47155;SDS011;32908;52.344;16.858;2023-03-01T09:02:03;28.57;;;15.93;;
47155;SDS011;32908;52.344;16.858;2023-03-01T09:04:31;27.40;;;13.90;;
47155;SDS011;32908;52.344;16.858;2023-03-01T09:07:00;31.03;;;16.50;;
47155;SDS011;32908;52.344;16.858;2023-03-01T09:09:28;31.50;;;17.47;;
47155;SDS011;32908;52.344;16.858;2023-03-01T09:11:56;29.07;;;16.60;;
47155;SDS011;32908;52.344;16.858;2023-03-01T09:14:24;31.20;;;16.40;;
47155;SDS011;32908;52.344;16.858;2023-03-01T09:16:52;30.30;;;17.47;;
47155;SDS011;32908;52.344;16.858;2023-03-01T09:19:21;33.20;;;17.17;;
47155;SDS011;32908;52.344;16.858;2023-03-01T09:21:49;33.07;;;17.93;;
47155;SDS011;32908;52.344;16.858;2023-03-01T09:24:19;32.77;;;17.50;;
47155;SDS011;32908;52.344;16.858;2023-03-01T09:26:48;28.63;;;17.47;;
47155;SDS011;32908;52.344;16.858;2023-03-01T09:29:17;25.27;;;14.40;;
47155;SDS011;32908;52.344;16.858;2023-03-01T09:31:45;25.13;;;13.90;;
47155;SDS011;32908;52.344;16.858;2023-03-01T09:34:13;24.27;;;13.87;;
47155;SDS011;32908;52.344;16.858;2023-03-01T09:36:42;20.70;;;12.70;;
47155;SDS011;32908;52.344;16.858;2023-03-01T09:39:10;21.30;;;12.80;;
47155;SDS011;32908;52.344;16.858;2023-03-01T09:41:46;24.10;;;12.83;;
47155;SDS011;32908;52.344;16.858;2023-03-01T09:46:48;19.80;;;11.57;;
47155;SDS011;32908;52.344;16.858;2023-03-01T09:49:18;23.17;;;12.47;;
47155;SDS011;32908;52.344;16.858;2023-03-01T09:51:53;21.47;;;13.33;;
47155;SDS011;32908;52.344;16.858;2023-03-01T09:54:24;24.40;;;13.35;;
47155;SDS011;32908;52.344;16.858;2023-03-01T09:56:56;19.30;;;12.10;;
47155;SDS011;32908;52.344;16.858;2023-03-01T09:59:29;20.60;;;11.60;;
47155;SDS011;32908;52.344;16.858;2023-03-01T10:02:04;14.23;;;9.17;;
47155;SDS011;32908;52.344;16.858;2023-03-01T10:04:44;15.50;;;9.60;;
47155;SDS011;32908;52.344;16.858;2023-03-01T10:07:19;14.63;;;8.83;;
47155;SDS011;32908;52.344;16.858;2023-03-01T10:09:53;13.47;;;8.63;;
47155;SDS011;32908;52.344;16.858;2023-03-01T10:12:22;16.13;;;9.13;;
47155;SDS011;32908;52.344;16.858;2023-03-01T10:14:55;17.10;;;9.80;;
47155;SDS011;32908;52.344;16.858;2023-03-01T10:17:30;17.67;;;10.93;;
47155;SDS011;32908;52.344;16.858;2023-03-01T10:20:10;19.43;;;9.83;;
47155;SDS011;32908;52.344;16.858;2023-03-01T10:22:46;15.37;;;9.07;;
47155;SDS011;32908;52.344;16.858;2023-03-01T10:25:23;16.30;;;9.63;;
47155;SDS011;32908;52.344;16.858;2023-03-01T10:28:02;17.73;;;10.03;;
47155;SDS011;32908;52.344;16.858;2023-03-01T10:30:34;14.90;;;9.00;;
47155;SDS011;32908;52.344;16.858;2023-03-01T10:33:08;15.80;;;9.43;;
47155;SDS011;32908;52.344;16.858;2023-03-01T10:35:42;16.53;;;10.17;;
47155;SDS011;32908;52.344;16.858;2023-03-01T10:38:11;16.00;;;9.27;;
47155;SDS011;32908;52.344;16.858;2023-03-01T10:40:50;16.53;;;9.70;;
47155;SDS011;32908;52.344;16.858;2023-03-01T10:43:20;14.40;;;9.33;;
47155;SDS011;32908;52.344;16.858;2023-03-01T10:45:48;16.77;;;9.53;;
47155;SDS011;32908;52.344;16.858;2023-03-01T10:48:17;15.90;;;8.87;;
47155;SDS011;32908;52.344;16.858;2023-03-01T10:50:48;17.20;;;10.00;;
47155;SDS011;32908;52.344;16.858;2023-03-01T10:53:21;17.17;;;10.10;;
47155;SDS011;32908;52.344;16.858;2023-03-01T10:56:02;14.87;;;9.43;;
47155;SDS011;32908;52.344;16.858;2023-03-01T10:58:32;18.20;;;9.57;;
47155;SDS011;32908;52.344;16.858;2023-03-01T11:01:02;11.70;;;7.37;;
47155;SDS011;32908;52.344;16.858;2023-03-01T11:03:31;14.87;;;8.50;;
47155;SDS011;32908;52.344;16.858;2023-03-01T11:06:04;13.37;;;8.13;;
47155;SDS011;32908;52.344;16.858;2023-03-01T11:08:36;15.43;;;8.43;;
47155;SDS011;32908;52.344;16.858;2023-03-01T11:11:21;12.03;;;8.07;;
47155;SDS011;32908;52.344;16.858;2023-03-01T11:13:53;14.33;;;8.30;;
47155;SDS011;32908;52.344;16.858;2023-03-01T11:16:23;14.03;;;7.80;;
47155;SDS011;32908;52.344;16.858;2023-03-01T11:18:56;16.47;;;8.30;;
47155;SDS011;32908;52.344;16.858;2023-03-01T11:21:25;13.20;;;7.90;;
47155;SDS011;32908;52.344;16.858;2023-03-01T11:23:55;12.13;;;7.70;;
47155;SDS011;32908;52.344;16.858;2023-03-01T11:26:25;13.40;;;8.60;;
47155;SDS011;32908;52.344;16.858;2023-03-01T11:28:56;17.10;;;9.53;;
47155;SDS011;32908;52.344;16.858;2023-03-01T11:31:25;16.47;;;9.20;;
47155;SDS011;32908;52.344;16.858;2023-03-01T11:33:55;12.77;;;8.03;;
47155;SDS011;32908;52.344;16.858;2023-03-01T11:36:28;15.50;;;8.33;;
47155;SDS011;32908;52.344;16.858;2023-03-01T11:39:02;15.10;;;8.70;;
47155;SDS011;32908;52.344;16.858;2023-03-01T11:41:40;16.10;;;7.87;;
47155;SDS011;32908;52.344;16.858;2023-03-01T11:44:10;14.57;;;8.60;;
47155;SDS011;32908;52.344;16.858;2023-03-01T11:46:44;14.77;;;8.37;;
47155;SDS011;32908;52.344;16.858;2023-03-01T11:49:27;12.93;;;8.13;;
47155;SDS011;32908;52.344;16.858;2023-03-01T11:52:06;15.43;;;9.20;;
47155;SDS011;32908;52.344;16.858;2023-03-01T11:54:43;20.00;;;8.73;;
47155;SDS011;32908;52.344;16.858;2023-03-01T11:57:19;16.53;;;9.03;;
47155;SDS011;32908;52.344;16.858;2023-03-01T12:02:48;12.07;;;7.97;;
47155;SDS011;32908;52.344;16.858;2023-03-01T12:05:50;15.77;;;9.13;;
47155;SDS011;32908;52.344;16.858;2023-03-01T12:08:31;16.97;;;8.37;;
47155;SDS011;32908;52.344;16.858;2023-03-01T12:11:03;17.20;;;8.47;;
47155;SDS011;32908;52.344;16.858;2023-03-01T12:13:42;13.43;;;7.63;;
47155;SDS011;32908;52.344;16.858;2023-03-01T12:16:32;13.43;;;7.70;;
47155;SDS011;32908;52.344;16.858;2023-03-01T12:19:29;12.80;;;8.10;;
47155;SDS011;32908;52.344;16.858;2023-03-01T12:22:20;14.13;;;8.23;;
47155;SDS011;32908;52.344;16.858;2023-03-01T12:27:53;13.27;;;7.10;;
47155;SDS011;32908;52.344;16.858;2023-03-01T12:31:00;13.83;;;8.23;;
47155;SDS011;32908;52.344;16.858;2023-03-01T12:33:43;13.40;;;8.03;;
47155;SDS011;32908;52.344;16.858;2023-03-01T12:36:27;13.90;;;8.00;;
47155;SDS011;32908;52.344;16.858;2023-03-01T12:39:03;15.73;;;8.17;;
47155;SDS011;32908;52.344;16.858;2023-03-01T12:41:50;17.30;;;9.10;;
47155;SDS011;32908;52.344;16.858;2023-03-01T12:44:29;12.80;;;8.07;;
47155;SDS011;32908;52.344;16.858;2023-03-01T12:47:14;14.60;;;7.80;;
47155;SDS011;32908;52.344;16.858;2023-03-01T12:49:51;14.23;;;7.92;;
47155;SDS011;32908;52.344;16.858;2023-03-01T12:52:22;11.77;;;7.90;;
47155;SDS011;32908;52.344;16.858;2023-03-01T12:54:54;13.27;;;7.90;;
47155;SDS011;32908;52.344;16.858;2023-03-01T12:57:25;12.93;;;7.43;;
47155;SDS011;32908;52.344;16.858;2023-03-01T13:00:06;11.63;;;6.80;;
47155;SDS011;32908;52.344;16.858;2023-03-01T13:02:47;11.87;;;6.63;;
47155;SDS011;32908;52.344;16.858;2023-03-01T13:05:29;13.97;;;8.17;;
47155;SDS011;32908;52.344;16.858;2023-03-01T13:08:07;12.93;;;7.70;;
47155;SDS011;32908;52.344;16.858;2023-03-01T13:10:40;21.27;;;9.33;;
47155;SDS011;32908;52.344;16.858;2023-03-01T13:13:14;13.67;;;7.90;;
47155;SDS011;32908;52.344;16.858;2023-03-01T13:15:47;13.57;;;7.80;;
47155;SDS011;32908;52.344;16.858;2023-03-01T13:18:30;12.67;;;7.57;;
47155;SDS011;32908;52.344;16.858;2023-03-01T13:21:03;13.43;;;7.73;;
47155;SDS011;32908;52.344;16.858;2023-03-01T13:23:34;17.30;;;9.53;;
47155;SDS011;32908;52.344;16.858;2023-03-01T13:26:05;14.00;;;7.57;;
47155;SDS011;32908;52.344;16.858;2023-03-01T13:28:48;12.30;;;7.20;;
47155;SDS011;32908;52.344;16.858;2023-03-01T13:34:52;16.43;;;8.07;;
47155;SDS011;32908;52.344;16.858;2023-03-01T13:37:22;14.57;;;7.13;;
47155;SDS011;32908;52.344;16.858;2023-03-01T13:40:03;14.67;;;7.77;;
47155;SDS011;32908;52.344;16.858;2023-03-01T13:42:47;14.27;;;7.33;;
47155;SDS011;32908;52.344;16.858;2023-03-01T13:45:17;11.20;;;7.33;;
47155;SDS011;32908;52.344;16.858;2023-03-01T13:47:49;10.77;;;6.67;;
47155;SDS011;32908;52.344;16.858;2023-03-01T13:50:21;12.70;;;7.37;;
47155;SDS011;32908;52.344;16.858;2023-03-01T13:52:53;13.23;;;7.43;;
47155;SDS011;32908;52.344;16.858;2023-03-01T13:55:27;15.53;;;8.20;;
47155;SDS011;32908;52.344;16.858;2023-03-01T13:58:04;18.87;;;10.60;;
47155;SDS011;32908;52.344;16.858;2023-03-01T14:00:40;15.30;;;7.83;;
47155;SDS011;32908;52.344;16.858;2023-03-01T14:03:10;10.67;;;7.57;;
47155;SDS011;32908;52.344;16.858;2023-03-01T14:05:40;11.63;;;7.10;;
47155;SDS011;32908;52.344;16.858;2023-03-01T14:08:19;15.37;;;7.70;;
47155;SDS011;32908;52.344;16.858;2023-03-01T14:11:00;14.47;;;7.60;;
47155;SDS011;32908;52.344;16.858;2023-03-01T14:13:54;10.83;;;6.80;;
47155;SDS011;32908;52.344;16.858;2023-03-01T14:16:32;15.20;;;7.70;;
47155;SDS011;32908;52.344;16.858;2023-03-01T14:19:08;11.93;;;7.70;;
47155;SDS011;32908;52.344;16.858;2023-03-01T14:21:43;11.97;;;7.37;;
47155;SDS011;32908;52.344;16.858;2023-03-01T14:24:18;11.57;;;7.43;;
47155;SDS011;32908;52.344;16.858;2023-03-01T14:26:48;25.93;;;11.47;;
47155;SDS011;32908;52.344;16.858;2023-03-01T14:29:24;20.50;;;11.27;;
47155;SDS011;32908;52.344;16.858;2023-03-01T14:31:53;18.03;;;9.77;;
47155;SDS011;32908;52.344;16.858;2023-03-01T14:34:21;14.00;;;7.90;;
47155;SDS011;32908;52.344;16.858;2023-03-01T14:36:50;17.80;;;10.13;;
47155;SDS011;32908;52.344;16.858;2023-03-01T14:39:20;14.73;;;8.63;;
47155;SDS011;32908;52.344;16.858;2023-03-01T14:41:52;13.37;;;8.50;;
47155;SDS011;32908;52.344;16.858;2023-03-01T14:44:21;18.83;;;8.23;;